Time;durP1;ratioP1;P1;durP2;ratioP2;P2;SDS_P1;SDS_P2;PMS_P1;PMS_P2;Temp;Humidity;BMP_temperature;BMP_pressure;BME280_temperature;BME280_humidity;BME280_pressure;Samples;Min_cycle;Max_cycle;Signal;HPM_P1;HPM_P2
2023/02/15 00:01:06;;;;;;;21.60;11.70;;;;;;;0.95;93.81;98693.41;109714;1248;69437;-73
2023/02/15 00:03:37;;;;;;;22.50;13.30;;;;;;;0.94;94.01;98695.16;109849;1244;68601;-73
2023/02/15 00:06:06;;;;;;;22.80;12.40;;;;;;;0.92;94.10;98694.15;109871;1254;58905;-73
2023/02/15 00:08:36;;;;;;;19.70;12.20;;;;;;;0.92;94.11;98696.21;109848;1246;58902;-73
2023/02/15 00:11:11;;;;;;;22.00;13.20;;;;;;;0.93;93.17;98693.63;109782;1245;69019;-73
2023/02/15 00:13:41;;;;;;;23.30;12.00;;;;;;;0.94;93.22;98697.05;109776;1245;69567;-73
2023/02/15 00:16:12;;;;;;;;;;;;;;;0.94;93.55;98701.51;109793;1252;69782;-73
2023/02/15 00:18:42;;;;;;;21.40;12.80;;;;;;;0.93;93.81;98701.52;109777;1246;58944;-73
2023/02/15 00:21:11;;;;;;;20.80;12.80;;;;;;;0.93;93.55;98702.73;109904;1250;58807;-73
2023/02/15 00:23:40;;;;;;;20.40;12.90;;;;;;;0.95;92.69;98702.70;109822;1246;70481;-73
2023/02/15 00:26:12;;;;;;;21.00;12.20;;;;;;;0.95;92.83;98704.73;109809;1244;68575;-73
2023/02/15 00:28:41;;;;;;;21.80;12.20;;;;;;;0.95;93.02;98701.83;110050;1245;68514;-73
2023/02/15 00:31:11;;;;;;;21.50;12.60;;;;;;;0.96;93.27;98702.67;109775;1248;58960;-74
2023/02/15 00:33:40;;;;;;;20.30;12.80;;;;;;;0.95;93.45;98703.55;109901;1245;58962;-73
2023/02/15 00:36:10;;;;;;;24.00;13.60;;;;;;;0.98;93.47;98704.38;109993;1244;70392;-74
2023/02/15 00:38:40;;;;;;;22.50;12.70;;;;;;;0.99;93.13;98703.52;109985;1245;69277;-75
2023/02/15 00:41:10;;;;;;;23.00;13.20;;;;;;;0.99;93.15;98705.05;109866;1245;69505;-74
2023/02/15 00:43:40;;;;;;;24.90;13.70;;;;;;;0.96;93.54;98704.05;109901;1244;58884;-75
2023/02/15 00:46:08;;;;;;;23.90;13.00;;;;;;;0.99;93.34;98705.90;109939;1244;60429;-74
2023/02/15 00:48:40;;;;;;;18.20;11.00;;;;;;;1.00;92.81;98706.41;109767;1246;69952;-73
2023/02/15 00:51:09;;;;;;;19.70;13.20;;;;;;;1.00;93.08;98712.59;110005;1246;69838;-73
2023/02/15 00:53:39;;;;;;;19.10;11.20;;;;;;;0.99;93.00;98708.13;109854;1245;69195;-73
2023/02/15 00:56:08;;;;;;;16.40;10.70;;;;;;;1.00;93.10;98703.48;109793;1248;58969;-73
2023/02/15 00:58:38;;;;;;;25.10;13.60;;;;;;;0.99;93.37;98702.48;110006;1246;58932;-74
2023/02/15 01:01:16;;;;;;;18.70;12.20;;;;;;;0.97;93.19;98698.89;109829;1249;70954;-74
2023/02/15 01:03:48;;;;;;;20.60;11.30;;;;;;;0.98;92.64;98699.73;110020;1246;68525;-73
2023/02/15 01:06:18;;;;;;;19.10;12.10;;;;;;;0.99;92.91;98699.05;109994;1246;69282;-73
2023/02/15 01:08:48;;;;;;;19.70;12.60;;;;;;;1.00;92.79;98696.62;109927;1246;58864;-74
2023/02/15 01:11:24;;;;;;;21.20;12.70;;;;;;;1.00;91.73;98685.28;110020;1246;58882;-73
2023/02/15 01:13:56;;;;;;;18.10;10.70;;;;;;;0.99;91.95;98686.83;109951;1244;70657;-74
2023/02/15 01:16:28;;;;;;;19.40;11.60;;;;;;;0.99;91.83;98680.83;109929;1243;69206;-74
2023/02/15 01:18:58;;;;;;;21.70;13.20;;;;;;;0.99;91.79;98679.11;109851;1246;68740;-73
2023/02/15 01:21:29;;;;;;;;;;;;;;;0.98;92.36;98675.54;109980;1245;58923;-73
2023/02/15 01:23:58;;;;;;;19.70;11.70;;;;;;;0.95;92.88;98674.20;109900;1244;58887;-74
2023/02/15 01:26:28;;;;;;;19.30;11.90;;;;;;;0.91;93.12;98672.20;109956;1246;68851;-74
2023/02/15 01:28:57;;;;;;;21.80;11.70;;;;;;;0.91;93.16;98670.48;109914;1245;68312;-74
2023/02/15 01:31:27;;;;;;;18.10;11.30;;;;;;;0.90;93.20;98668.95;109829;1246;70036;-73
2023/02/15 01:33:57;;;;;;;20.30;13.10;;;;;;;0.89;93.06;98669.48;109904;1245;58930;-73
2023/02/15 01:36:29;;;;;;;19.40;11.90;;;;;;;0.86;93.39;98669.52;109908;1244;58903;-73
2023/02/15 01:39:00;;;;;;;18.40;10.40;;;;;;;0.87;93.27;98673.44;109969;1244;70549;-74
2023/02/15 01:41:32;;;;;;;20.70;12.00;;;;;;;0.87;93.28;98667.10;110016;1246;69105;-73
2023/02/15 01:44:03;;;;;;;20.60;12.50;;;;;;;0.88;93.20;98666.41;109939;1245;68432;-73
2023/02/15 01:46:40;;;;;;;20.10;12.00;;;;;;;0.89;93.07;98670.34;109899;1244;58885;-73
2023/02/15 01:49:16;;;;;;;22.60;12.40;;;;;;;0.89;93.17;98667.94;110008;1245;59284;-73
2023/02/15 01:51:48;;;;;;;20.50;11.20;;;;;;;0.91;92.87;98668.08;109986;1244;69841;-74
2023/02/15 01:54:32;;;;;;;19.90;11.60;;;;;;;0.90;92.91;98666.88;109905;1244;69434;-74
2023/02/15 01:57:12;;;;;;;23.40;13.30;;;;;;;0.85;93.26;98664.05;109881;1245;69748;-74
2023/02/15 01:59:45;;;;;;;22.90;14.20;;;;;;;0.83;93.42;98665.27;109902;1247;58883;-74
2023/02/15 02:02:20;;;;;;;21.90;12.80;;;;;;;0.80;93.64;98665.14;109975;1244;58925;-73
2023/02/15 02:04:52;;;;;;;22.40;13.80;;;;;;;0.78;93.88;98662.23;109829;1247;71183;-74
2023/02/15 02:07:28;;;;;;;22.50;13.10;;;;;;;0.76;93.74;98664.16;109871;1246;68508;-74
2023/02/15 02:10:06;;;;;;;18.20;11.80;;;;;;;0.79;93.73;98661.39;110003;1244;68486;-74
2023/02/15 02:12:40;;;;;;;21.60;12.80;;;;;;;0.77;93.74;98661.23;109846;1244;58953;-74
2023/02/15 02:15:10;;;;;;;21.80;12.20;;;;;;;0.78;93.55;98656.76;109699;1245;58965;-72
2023/02/15 02:18:17;;;;;;;23.00;13.40;;;;;;;0.77;93.62;98655.73;109756;1246;70613;-72
2023/02/15 02:21:21;;;;;;;22.90;12.70;;;;;;;0.79;92.77;98656.24;109920;1245;69176;-73
2023/02/15 02:24:16;;;;;;;19.40;11.40;;;;;;;0.80;92.61;98657.26;109891;1246;68580;-72
2023/02/15 02:27:04;;;;;;;18.90;11.40;;;;;;;0.79;92.40;98661.55;109763;1245;58878;-73
2023/02/15 02:30:12;;;;;;;20.90;11.20;;;;;;;0.77;92.66;98655.91;109734;1245;58913;-73
2023/02/15 02:33:04;;;;;;;21.60;11.90;;;;;;;0.79;92.22;98656.23;109728;1246;70035;-73
2023/02/15 02:35:57;;;;;;;20.70;13.10;;;;;;;0.75;92.53;98656.81;109897;1246;69114;-73
2023/02/15 02:38:57;;;;;;;20.60;10.00;;;;;;;0.74;92.54;98660.94;109822;1245;69837;-73
2023/02/15 02:41:56;;;;;;;18.30;11.90;;;;;;;0.73;92.52;98659.92;109773;1244;58871;-73
2023/02/15 02:45:02;;;;;;;21.80;11.20;;;;;;;0.72;93.02;98659.41;109893;1245;58882;-73
2023/02/15 02:47:45;;;;;;;22.90;12.50;;;;;;;0.72;92.49;98662.33;109425;1252;69056;-73
2023/02/15 02:50:18;;;;;;;20.10;12.30;;;;;;;0.70;93.03;98664.92;109734;1246;67747;-73
2023/02/15 02:52:49;;;;;;;19.20;11.70;;;;;;;0.69;93.12;98663.40;109915;1245;69287;-73
2023/02/15 02:55:26;;;;;;;17.40;11.10;;;;;;;0.66;93.15;98661.89;109804;1246;58842;-73
2023/02/15 02:58:14;;;;;;;19.90;11.40;;;;;;;0.67;93.19;98663.61;109744;1245;58851;-73
2023/02/15 03:01:16;;;;;;;19.30;12.80;;;;;;;0.69;92.81;98661.69;109805;1246;70186;-73
2023/02/15 03:03:55;;;;;;;20.30;11.20;;;;;;;0.71;92.62;98663.23;109921;1244;68597;-73
2023/02/15 03:06:54;;;;;;;21.30;12.10;;;;;;;0.72;92.59;98665.25;109939;1246;68617;-73
2023/02/15 03:09:34;;;;;;;17.90;10.90;;;;;;;0.70;92.78;98665.29;109852;1244;58885;-73
2023/02/15 03:12:06;;;;;;;19.40;11.90;;;;;;;0.70;92.77;98670.09;109853;1245;58908;-73
2023/02/15 03:14:40;;;;;;;19.60;11.20;;;;;;;0.71;92.68;98672.48;109846;1245;70674;-73
2023/02/15 03:17:13;;;;;;;20.30;11.00;;;;;;;0.73;91.92;98676.39;109865;1246;69270;-73
2023/02/15 03:19:45;;;;;;;22.00;11.60;;;;;;;0.74;91.50;98677.07;109905;1243;69330;-73
2023/02/15 03:22:19;;;;;;;19.90;12.20;;;;;;;0.74;91.86;98680.50;109875;1245;58960;-76
2023/02/15 03:25:15;;;;;;;18.70;10.30;;;;;;;0.74;92.20;98678.96;109902;1246;58884;-74
2023/02/15 03:27:54;;;;;;;21.70;12.40;;;;;;;0.72;92.34;98673.15;109843;1246;70594;-74
2023/02/15 03:30:25;;;;;;;22.10;11.60;;;;;;;0.71;92.62;98671.09;109863;1244;69691;-74
2023/02/15 03:32:59;;;;;;;19.60;10.90;;;;;;;0.68;92.83;98675.41;109834;1244;69181;-74
2023/02/15 03:36:08;;;;;;;21.00;11.80;;;;;;;0.68;92.44;98679.36;109884;1246;58883;-74
2023/02/15 03:38:50;;;;;;;21.10;12.30;;;;;;;0.65;92.85;98683.37;109853;1245;58855;-74
2023/02/15 03:41:24;;;;;;;21.50;12.30;;;;;;;0.66;93.47;98684.56;109940;1246;70445;-74
2023/02/15 03:43:59;;;;;;;21.60;11.90;;;;;;;0.67;92.55;98687.28;109856;1245;68231;-74
2023/02/15 03:46:40;;;;;;;20.60;11.90;;;;;;;0.69;91.90;98683.65;109982;1245;69276;-74
2023/02/15 03:49:21;;;;;;;17.10;10.70;;;;;;;0.70;91.79;98685.19;109916;1245;58912;-74
2023/02/15 03:51:56;;;;;;;17.10;9.70;;;;;;;0.69;91.62;98686.05;109897;1246;58867;-74
2023/02/15 03:54:43;;;;;;;22.40;12.30;;;;;;;0.68;91.99;98685.20;109896;1246;69884;-74
2023/02/15 04:03:13;;;;;;;20.20;11.80;;;;;;;0.66;92.58;98685.57;109898;1246;58872;-73
2023/02/15 04:05:45;;;;;;;19.60;11.60;;;;;;;0.65;92.10;98696.07;109742;1246;58933;-74
2023/02/15 04:08:15;;;;;;;20.30;12.30;;;;;;;0.65;92.20;98695.38;109820;1245;69830;-72
2023/02/15 04:10:52;;;;;;;19.60;11.00;;;;;;;0.66;92.13;98698.98;109912;1246;68366;-73
2023/02/15 04:13:24;;;;;;;19.20;11.00;;;;;;;0.65;92.53;98699.84;109915;1245;68616;-72
2023/02/15 04:16:03;;;;;;;19.50;12.00;;;;;;;0.63;92.88;98696.08;109837;1245;58883;-72
2023/02/15 04:27:07;;;;;;;13.50;8.80;;;;;;;0.63;92.67;98702.09;109923;1245;68719;-73
2023/02/15 04:29:37;;;;;;;21.50;12.80;;;;;;;0.62;92.67;98702.96;109772;1245;58909;-74
2023/02/15 04:32:07;;;;;;;19.10;10.80;;;;;;;0.57;93.08;98707.14;109909;1246;58897;-74
2023/02/15 04:34:37;;;;;;;19.50;11.60;;;;;;;0.56;93.22;98711.45;109842;1251;69766;-73
2023/02/15 04:37:06;;;;;;;19.10;11.40;;;;;;;0.57;92.41;98712.12;109779;1243;69429;-73
2023/02/15 04:39:36;;;;;;;19.90;12.50;;;;;;;0.56;92.21;98714.02;109825;1246;69283;-72
2023/02/15 04:42:05;;;;;;;20.50;11.60;;;;;;;0.55;92.08;98716.59;109842;1245;59005;-73
2023/02/15 04:44:35;;;;;;;;;;;;;;;0.54;92.16;98718.31;109847;1244;58960;-73
2023/02/15 04:47:04;;;;;;;18.70;11.20;;;;;;;0.53;92.21;98719.88;109850;1244;71152;-73
2023/02/15 04:49:33;;;;;;;19.30;12.20;;;;;;;0.51;92.42;98719.89;109938;1245;69249;-73
2023/02/15 04:52:03;;;;;;;24.30;13.00;;;;;;;0.52;91.84;98719.55;110018;1245;69371;-73
2023/02/15 04:54:33;;;;;;;23.70;13.90;;;;;;;0.53;91.80;98720.91;109867;1246;58889;-74
2023/02/15 04:57:02;;;;;;;18.30;11.00;;;;;;;0.52;91.57;98722.30;109889;1243;58943;-73
2023/02/15 04:59:31;;;;;;;20.10;12.70;;;;;;;0.50;91.71;98726.08;109898;1245;70678;-74
2023/02/15 05:02:00;;;;;;;23.90;12.80;;;;;;;0.50;91.10;98726.42;109932;1243;68533;-73
2023/02/15 05:04:29;;;;;;;17.40;11.00;;;;;;;0.49;91.28;98728.48;109923;1246;69895;-74
2023/02/15 05:06:58;;;;;;;17.10;10.80;;;;;;;0.49;91.30;98728.84;109987;1246;58937;-73
2023/02/15 05:09:27;;;;;;;18.80;11.00;;;;;;;0.45;91.81;98730.60;109833;1245;58871;-73
2023/02/15 05:11:55;;;;;;;18.40;11.60;;;;;;;0.44;91.26;98737.30;109985;1244;70513;-73
2023/02/15 05:14:24;;;;;;;17.90;11.10;;;;;;;0.43;91.56;98736.46;109839;1245;69135;-73
2023/02/15 05:16:53;;;;;;;23.60;12.00;;;;;;;0.40;92.20;98740.61;109756;1245;69274;-73
2023/02/15 05:19:24;;;;;;;20.90;12.40;;;;;;;0.40;91.70;98741.98;109952;1246;58917;-73
2023/02/15 05:21:53;;;;;;;22.40;12.80;;;;;;;0.39;91.60;98744.73;109969;1248;58937;-73
2023/02/15 05:30:14;;;;;;;19.30;12.60;;;;;;;0.39;90.77;98752.45;109574;1245;69298;-72
2023/02/15 05:32:44;;;;;;;23.50;12.70;;;;;;;0.39;90.75;98751.60;109740;1245;58899;-73
2023/02/15 05:35:15;;;;;;;21.80;11.60;;;;;;;0.37;91.38;98752.13;109992;1246;58876;-73
2023/02/15 05:37:44;;;;;;;22.90;13.20;;;;;;;0.39;91.12;98755.71;109908;1244;71134;-73
2023/02/15 05:40:13;;;;;;;18.60;11.60;;;;;;;0.37;91.59;98763.61;109848;1244;69215;-73
2023/02/15 05:42:42;;;;;;;20.90;11.60;;;;;;;0.35;91.88;98766.38;109826;1253;69312;-73
2023/02/15 05:45:11;;;;;;;18.70;11.80;;;;;;;0.37;91.28;98776.83;109819;1248;58905;-73
2023/02/15 05:47:40;;;;;;;18.00;10.60;;;;;;;0.37;91.23;98775.98;109988;1246;59367;-73
2023/02/15 05:50:10;;;;;;;19.70;11.90;;;;;;;0.39;91.35;98777.33;109859;1245;70544;-72
2023/02/15 05:52:39;;;;;;;17.00;9.90;;;;;;;0.40;91.74;98778.16;110025;1245;69229;-73
2023/02/15 05:55:08;;;;;;;19.70;12.00;;;;;;;0.39;91.72;98777.83;109740;1246;70184;-72
2023/02/15 05:57:37;;;;;;;22.40;13.30;;;;;;;0.38;91.97;98779.05;109785;1245;58914;-73
2023/02/15 06:00:08;;;;;;;21.30;12.60;;;;;;;0.40;91.27;98778.34;109872;1245;58975;-74
2023/02/15 06:02:40;;;;;;;22.20;12.00;;;;;;;0.38;91.59;98779.04;109951;1243;70376;-72
2023/02/15 06:05:09;;;;;;;17.80;12.20;;;;;;;0.40;91.39;98782.28;109864;1245;69240;-72
2023/02/15 06:07:38;;;;;;;19.60;11.80;;;;;;;0.42;90.83;98787.76;109978;1246;69332;-74
2023/02/15 06:10:07;;;;;;;21.50;12.40;;;;;;;0.44;90.86;98792.71;109924;1246;58911;-73
2023/02/15 06:12:36;;;;;;;19.30;11.50;;;;;;;0.46;90.68;98794.40;109710;1248;59267;-72
2023/02/15 06:15:06;;;;;;;20.00;12.10;;;;;;;0.48;90.71;98794.05;109804;1245;70924;-73
2023/02/15 06:17:35;;;;;;;19.50;11.00;;;;;;;0.50;90.54;98797.61;109920;1245;69880;-72
2023/02/15 06:20:05;;;;;;;20.50;11.80;;;;;;;0.53;90.42;98802.41;109764;1246;69546;-73
2023/02/15 06:22:34;;;;;;;20.60;12.10;;;;;;;0.55;90.34;98798.60;109778;1245;58966;-73
2023/02/15 06:25:03;;;;;;;18.30;12.10;;;;;;;0.57;90.43;98801.84;109762;1245;58883;-72
2023/02/15 06:27:32;;;;;;;24.40;13.60;;;;;;;0.61;90.58;98805.40;109850;1245;71521;-72
2023/02/15 06:30:01;;;;;;;22.60;13.10;;;;;;;0.62;90.24;98804.02;110042;1245;70276;-72
2023/02/15 06:32:30;;;;;;;19.80;12.30;;;;;;;0.63;90.16;98801.42;109896;1248;69040;-72
2023/02/15 06:34:58;;;;;;;18.10;11.30;;;;;;;0.67;89.86;98806.71;109921;1244;58909;-72
2023/02/15 06:37:28;;;;;;;23.60;13.10;;;;;;;0.69;89.16;98804.63;109882;1246;59021;-73
2023/02/15 06:39:57;;;;;;;19.50;12.10;;;;;;;0.69;88.99;98806.15;109988;1246;69886;-72
2023/02/15 06:42:26;;;;;;;18.30;11.50;;;;;;;0.73;88.88;98806.46;109986;1245;69424;-73
2023/02/15 06:44:55;;;;;;;19.50;12.20;;;;;;;0.76;88.76;98807.45;110076;1244;69727;-73
2023/02/15 06:47:24;;;;;;;15.90;10.20;;;;;;;0.82;88.93;98809.80;109860;1244;58968;-73
2023/02/15 06:49:53;;;;;;;20.50;11.50;;;;;;;0.87;88.72;98813.33;110106;1244;58936;-74
2023/02/15 06:52:22;;;;;;;19.30;11.10;;;;;;;0.94;88.68;98813.25;109858;1245;70573;-74
2023/02/15 06:54:51;;;;;;;17.20;10.30;;;;;;;0.99;88.87;98813.88;110067;1246;69765;-73
2023/02/15 06:57:19;;;;;;;19.30;10.80;;;;;;;1.07;88.50;98815.35;109834;1244;68584;-73
2023/02/15 06:59:48;;;;;;;16.80;10.80;;;;;;;1.12;88.29;98811.50;110001;1245;58906;-73
2023/02/15 07:02:17;;;;;;;19.30;11.60;;;;;;;1.13;87.35;98807.19;109697;1247;58939;-72
2023/02/15 07:04:46;;;;;;;20.30;11.30;;;;;;;1.16;86.74;98806.98;109745;1243;70123;-73
2023/02/15 07:07:15;;;;;;;18.70;11.10;;;;;;;1.18;86.75;98809.34;109738;1244;70138;-73
2023/02/15 07:09:44;;;;;;;18.70;12.00;;;;;;;1.23;86.90;98806.38;109717;1245;69670;-73
2023/02/15 07:15:00;;;;;;;19.30;11.90;;;;;;;1.31;86.71;98804.54;109758;1246;58845;-73
2023/02/15 07:17:30;;;;;;;23.00;12.50;;;;;;;1.20;85.81;98807.27;109885;1245;70544;-73
2023/02/15 07:20:15;;;;;;;23.20;13.60;;;;;;;1.17;85.76;98808.00;109812;1245;70026;-73
2023/02/15 07:22:44;;;;;;;23.50;13.20;;;;;;;1.11;85.79;98801.54;109881;1246;68800;-73
2023/02/15 07:25:14;;;;;;;19.90;11.70;;;;;;;1.14;86.24;98798.94;109905;1246;59288;-73
2023/02/15 07:27:44;;;;;;;19.60;11.20;;;;;;;1.18;85.29;98799.92;109780;1245;58937;-73
2023/02/15 07:30:16;;;;;;;22.50;12.90;;;;;;;1.17;84.33;98796.33;110017;1244;71653;-73
2023/02/15 07:35:33;;;;;;;21.50;11.60;;;;;;;1.19;84.55;98794.92;109897;1245;69784;-72
2023/02/15 07:38:02;;;;;;;22.10;13.20;;;;;;;1.33;85.04;98799.20;109855;1244;58903;-73
2023/02/15 07:40:31;;;;;;;18.70;11.70;;;;;;;1.45;84.29;98806.42;109848;1245;58867;-74
2023/02/15 07:43:00;;;;;;;16.50;10.60;;;;;;;1.53;83.71;98804.06;109910;1244;70400;-73
2023/02/15 07:45:28;;;;;;;17.80;10.40;;;;;;;1.52;83.05;98798.60;109887;1245;69229;-74
2023/02/15 07:48:00;;;;;;;20.50;12.40;;;;;;;1.51;82.37;98798.41;109861;1246;68525;-73
2023/02/15 07:50:30;;;;;;;17.40;10.70;;;;;;;1.51;82.12;98796.88;109882;1245;58872;-74
2023/02/15 07:53:02;;;;;;;19.60;11.20;;;;;;;1.60;82.70;98801.40;109898;1245;58922;-74
2023/02/15 07:55:30;;;;;;;19.40;12.60;;;;;;;1.61;82.14;98803.96;110011;1245;71126;-73
2023/02/15 07:57:59;;;;;;;16.40;10.70;;;;;;;1.68;82.13;98804.88;109717;1243;68850;-74
2023/02/15 08:00:29;;;;;;;17.10;10.40;;;;;;;1.78;81.89;98808.17;109948;1245;68520;-74
2023/02/15 08:03:13;;;;;;;18.20;10.30;;;;;;;1.86;81.37;98805.47;110071;1246;59107;-74
2023/02/15 08:05:44;;;;;;;18.20;11.00;;;;;;;1.82;80.22;98805.02;109883;1245;58892;-74
2023/02/15 08:08:29;;;;;;;18.10;12.20;;;;;;;1.90;80.67;98807.63;109971;1245;70606;-74
2023/02/15 08:13:59;;;;;;;19.40;11.40;;;;;;;2.03;80.35;98809.31;109867;1244;69857;-74
2023/02/15 08:16:35;;;;;;;18.20;11.20;;;;;;;2.04;79.61;98807.58;109830;1244;59244;-74
2023/02/15 08:19:06;;;;;;;21.60;12.60;;;;;;;2.02;79.59;98810.02;109834;1244;58865;-74
2023/02/15 08:21:40;;;;;;;20.10;11.60;;;;;;;1.97;80.56;98813.89;109698;1245;70557;-71
2023/02/15 08:24:10;;;;;;;18.10;11.30;;;;;;;2.09;80.74;98814.56;109894;1246;69788;-74
2023/02/15 08:26:40;;;;;;;21.70;11.50;;;;;;;2.15;80.49;98816.19;110033;1244;68722;-74
2023/02/15 08:29:10;;;;;;;19.40;11.30;;;;;;;2.19;80.55;98818.17;110240;1244;58895;-73
2023/02/15 08:31:40;;;;;;;19.00;11.30;;;;;;;2.30;81.12;98817.47;110080;1244;58866;-73
2023/02/15 08:34:11;;;;;;;19.50;11.60;;;;;;;2.34;79.92;98816.73;110112;1243;71221;-73
2023/02/15 08:36:41;;;;;;;22.10;12.70;;;;;;;2.42;80.26;98816.76;110057;1244;69858;-72
2023/02/15 08:39:09;;;;;;;17.40;11.00;;;;;;;2.42;79.61;98816.05;109886;1244;69305;-73
2023/02/15 08:41:41;;;;;;;19.60;11.20;;;;;;;2.42;79.07;98817.10;109979;1245;58967;-74
2023/02/15 08:44:10;;;;;;;18.70;11.30;;;;;;;2.44;79.43;98812.76;110051;1243;58953;-73
2023/02/15 08:46:42;;;;;;;20.70;12.50;;;;;;;2.48;79.37;98820.26;110122;1244;69628;-73
2023/02/15 08:49:21;;;;;;;19.60;12.30;;;;;;;2.44;78.91;98822.04;110073;1245;69289;-73
2023/02/15 08:51:50;;;;;;;21.00;12.30;;;;;;;2.36;79.08;98823.40;110053;1244;69173;-71
2023/02/15 08:54:21;;;;;;;22.20;12.70;;;;;;;2.24;79.58;98820.66;110027;1251;58941;-73
2023/02/15 08:56:51;;;;;;;19.70;12.00;;;;;;;2.28;79.77;98820.42;110100;1244;58886;-74
2023/02/15 08:59:22;;;;;;;19.00;11.90;;;;;;;2.34;79.69;98824.63;109951;1251;70996;-72
2023/02/15 09:01:52;;;;;;;18.40;11.10;;;;;;;2.40;79.40;98826.74;109993;1244;69852;-72
2023/02/15 09:04:22;;;;;;;21.10;12.10;;;;;;;2.43;79.12;98830.15;109817;1245;69608;-72
2023/02/15 09:06:52;;;;;;;20.30;13.20;;;;;;;2.44;79.38;98832.36;109931;1243;58953;-73
2023/02/15 09:09:21;;;;;;;20.20;12.60;;;;;;;2.53;79.20;98832.20;109960;1243;58844;-72
2023/02/15 09:11:52;;;;;;;20.50;12.30;;;;;;;2.60;78.98;98831.05;110029;1243;69408;-74
2023/02/15 09:14:27;;;;;;;19.00;10.50;;;;;;;2.74;78.10;98830.63;110053;1245;69697;-72
2023/02/15 09:16:56;;;;;;;19.30;12.10;;;;;;;2.94;78.21;98824.73;109998;1244;68515;-72
2023/02/15 09:19:25;;;;;;;18.60;12.90;;;;;;;3.17;77.11;98821.17;109937;1244;58885;-72
2023/02/15 09:21:54;;;;;;;20.10;12.70;;;;;;;3.41;77.11;98818.24;109718;1246;58941;-72
2023/02/15 09:24:23;;;;;;;17.30;11.60;;;;;;;3.49;74.89;98816.70;109958;1244;70858;-72
2023/02/15 09:26:52;;;;;;;19.60;12.50;;;;;;;3.60;74.49;98817.66;110077;1244;69230;-72
2023/02/15 09:29:22;;;;;;;21.90;12.70;;;;;;;3.73;74.08;98813.58;110061;1244;69434;-72
2023/02/15 09:31:51;;;;;;;17.80;11.80;;;;;;;3.75;73.48;98808.88;109909;1244;58929;-72
2023/02/15 09:34:22;;;;;;;18.00;11.00;;;;;;;3.87;73.09;98805.49;109882;1244;58883;-72
2023/02/15 09:36:51;;;;;;;17.90;11.10;;;;;;;4.03;74.05;98808.20;110009;1244;70473;-72
2023/02/15 09:39:24;;;;;;;18.30;11.40;;;;;;;4.01;72.36;98803.42;110084;1244;69672;-72
2023/02/15 09:42:11;;;;;;;18.50;12.20;;;;;;;4.03;71.53;98803.02;110045;1244;69184;-72
2023/02/15 09:45:09;;;;;;;17.20;10.80;;;;;;;4.05;71.89;98804.69;110166;1244;59196;-73
2023/02/15 09:47:55;;;;;;;19.50;12.00;;;;;;;4.14;71.79;98803.63;110062;1244;58893;-73
2023/02/15 09:50:58;;;;;;;20.00;12.30;;;;;;;4.03;71.30;98801.29;110153;1244;70624;-73
2023/02/15 09:53:35;;;;;;;21.60;12.10;;;;;;;4.11;72.07;98800.59;110158;1245;69631;-71
2023/02/15 09:56:38;;;;;;;20.40;12.00;;;;;;;4.17;71.61;98792.66;109956;1245;69303;-72
2023/02/15 09:59:16;;;;;;;17.90;11.10;;;;;;;4.25;70.82;98789.19;109902;1244;59405;-72
2023/02/15 10:02:02;;;;;;;19.30;11.80;;;;;;;4.20;70.92;98787.77;109906;1244;58889;-72
2023/02/15 10:04:49;;;;;;;14.80;10.50;;;;;;;4.28;71.02;98786.87;110055;1244;70449;-72
2023/02/15 10:07:36;;;;;;;15.80;10.80;;;;;;;4.36;70.09;98789.77;109778;1245;372768;-72
2023/02/15 10:10:28;;;;;;;20.40;12.40;;;;;;;4.34;69.22;98784.48;110071;1244;69886;-72
2023/02/15 10:13:15;;;;;;;21.70;12.70;;;;;;;4.21;69.35;98781.36;110194;1244;58889;-73
2023/02/15 10:16:13;;;;;;;22.20;13.00;;;;;;;4.22;69.89;98780.46;110167;1244;58847;-73
2023/02/15 10:19:35;;;;;;;18.50;11.20;;;;;;;4.37;70.48;98774.22;109930;1244;70116;-73
2023/02/15 10:22:06;;;;;;;18.00;11.70;;;;;;;4.16;69.29;98772.52;109388;1251;69235;-72
2023/02/15 10:24:58;;;;;;;17.50;11.30;;;;;;;4.18;70.41;98772.80;110052;1244;69728;-73
2023/02/15 10:27:32;;;;;;;17.60;11.50;;;;;;;4.14;69.95;98772.56;110022;1244;58944;-73
2023/02/15 10:30:09;;;;;;;18.20;11.90;;;;;;;4.26;70.30;98770.70;110008;1244;58873;-73
2023/02/15 10:33:01;;;;;;;20.40;13.10;;;;;;;4.36;69.73;98768.21;109844;1244;70412;-72
2023/02/15 10:36:03;;;;;;;21.80;12.90;;;;;;;4.23;69.40;98765.59;109781;1244;68786;-73
2023/02/15 10:38:42;;;;;;;22.70;12.60;;;;;;;4.20;69.65;98762.91;109927;1245;70296;-73
2023/02/15 10:41:24;;;;;;;16.40;10.80;;;;;;;4.18;69.79;98764.52;109868;1243;58950;-73
2023/02/15 10:44:19;;;;;;;17.30;11.50;;;;;;;4.26;69.52;98765.01;110020;1245;58944;-73
2023/02/15 10:47:38;;;;;;;16.90;11.60;;;;;;;4.25;69.14;98762.11;109839;1244;70553;-73
2023/02/15 10:50:34;;;;;;;20.80;12.40;;;;;;;3.91;70.04;98753.46;109723;1243;68510;-72
2023/02/15 10:53:26;;;;;;;20.50;13.20;;;;;;;3.89;70.43;98751.95;109952;1244;69796;-72
2023/02/15 10:56:14;;;;;;;21.50;12.70;;;;;;;3.79;70.74;98747.73;110077;1244;59297;-73
2023/02/15 10:59:13;;;;;;;19.30;12.20;;;;;;;3.83;70.46;98749.52;109926;1244;58946;-73
2023/02/15 11:01:50;;;;;;;18.60;11.90;;;;;;;3.97;70.54;98750.38;110092;1244;69834;-73
2023/02/15 11:04:33;;;;;;;19.30;11.80;;;;;;;4.14;71.06;98750.13;110201;1244;69814;-73
2023/02/15 11:07:17;;;;;;;15.70;10.00;;;;;;;4.31;69.98;98752.80;110098;1244;69103;-72
2023/02/15 11:10:05;;;;;;;20.00;11.20;;;;;;;4.33;68.72;98751.02;109947;1244;58865;-73
2023/02/15 11:12:34;;;;;;;19.80;12.10;;;;;;;4.23;68.13;98747.30;110002;1243;58876;-73
2023/02/15 11:15:16;;;;;;;18.50;12.10;;;;;;;4.17;69.00;98744.20;109993;1244;71052;-72
2023/02/15 11:17:58;;;;;;;17.40;11.60;;;;;;;4.01;69.67;98746.64;110266;1243;68497;-73
2023/02/15 11:20:33;;;;;;;16.80;10.40;;;;;;;3.94;70.06;98744.41;110142;1244;69897;-73
2023/02/15 11:23:02;;;;;;;20.40;12.50;;;;;;;3.96;69.88;98746.62;109986;1243;58954;-71
2023/02/15 11:25:34;;;;;;;17.60;12.00;;;;;;;3.90;69.71;98741.58;110217;1244;58840;-73
2023/02/15 11:28:23;;;;;;;19.60;12.20;;;;;;;4.03;69.55;98739.70;110132;1244;71165;-72
2023/02/15 11:30:56;;;;;;;18.90;12.10;;;;;;;4.08;69.56;98739.06;110098;1244;68230;-73
2023/02/15 11:33:31;;;;;;;17.30;11.20;;;;;;;4.22;69.36;98732.51;110104;1244;69143;-73
2023/02/15 11:36:02;;;;;;;18.40;11.70;;;;;;;4.29;68.28;98731.10;110199;1244;58903;-73
2023/02/15 11:38:33;;;;;;;19.60;10.60;;;;;;;4.53;68.77;98727.52;110081;1244;58888;-72
2023/02/15 11:41:11;;;;;;;17.30;10.20;;;;;;;4.79;69.26;98723.84;110102;1245;70602;-74
2023/02/15 11:43:44;;;;;;;16.40;10.70;;;;;;;4.85;66.60;98725.91;110119;1244;69206;-74
2023/02/15 11:46:14;;;;;;;19.70;13.00;;;;;;;5.04;66.78;98727.42;110083;1246;69668;-72
2023/02/15 11:48:43;;;;;;;19.80;11.60;;;;;;;5.05;66.22;98725.18;110124;1244;58900;-72
2023/02/15 11:51:15;;;;;;;22.30;13.00;;;;;;;5.02;66.43;98724.05;110079;1245;58913;-72
2023/02/15 11:53:46;;;;;;;16.60;10.90;;;;;;;5.13;66.06;98724.58;110125;1244;69631;-72
2023/02/15 11:56:21;;;;;;;20.10;13.40;;;;;;;5.15;65.30;98721.77;110130;1244;69811;-72
2023/02/15 11:59:00;;;;;;;20.60;12.30;;;;;;;5.14;65.42;98722.85;110084;1244;69888;-72
2023/02/15 12:01:36;;;;;;;22.20;14.10;;;;;;;4.94;65.44;98721.35;110103;1244;58872;-72
2023/02/15 12:04:18;;;;;;;17.40;11.30;;;;;;;5.09;65.20;98717.81;109880;1244;58886;-71
2023/02/15 12:06:49;;;;;;;17.80;12.40;;;;;;;5.40;65.41;98718.56;109795;1244;70548;-72
2023/02/15 12:09:24;;;;;;;18.30;11.00;;;;;;;5.65;64.63;98716.56;109878;1243;68387;-72
2023/02/15 12:11:53;;;;;;;21.50;13.40;;;;;;;5.89;63.75;98712.16;109972;1244;67848;-72
2023/02/15 12:14:22;;;;;;;18.50;11.50;;;;;;;5.91;62.17;98708.29;110049;1245;58960;-71
2023/02/15 12:16:55;;;;;;;18.10;11.60;;;;;;;6.86;60.00;98697.85;109976;1244;58836;-71
2023/02/15 12:19:36;;;;;;;19.70;12.50;;;;;;;7.97;57.21;98696.75;109896;1243;70453;-73
2023/02/15 12:22:06;;;;;;;15.70;11.00;;;;;;;8.30;54.35;98694.66;109827;1243;69242;-70
2023/02/15 12:24:45;;;;;;;13.20;9.30;;;;;;;8.65;53.29;98686.04;109937;1244;69900;-73